Time;durP1;ratioP1;P1;durP2;ratioP2;P2;SDS_P1;SDS_P2;PMS_P1;PMS_P2;Temp;Humidity;BMP_temperature;BMP_pressure;BME280_temperature;BME280_humidity;BME280_pressure;Samples;Min_cycle;Max_cycle;Signal;HPM_P1;HPM_P2
2019/07/10 00:00:15;;;;;;;3.2;1.1;;;;;;;14.08;56.70313;1005.822;;;;
2019/07/10 00:02:44;;;;;;;3.4;1.1;;;;;;;14.38;56.96191;1005.81;;;;
2019/07/10 00:05:21;;;;;;;2.5;1.4;;;;;;;14.23;57.38281;1005.804;;;;
2019/07/10 00:07:44;;;;;;;1.6;1.1;;;;;;;14.19;57.44629;1005.848;;;;
2019/07/10 00:10:10;;;;;;;2;1.3;;;;;;;14.16;57.79883;1005.889;;;;
2019/07/10 00:12:36;;;;;;;4.1;1.4;;;;;;;14.03;58.45215;1005.922;;;;
2019/07/10 00:15:03;;;;;;;2.5;1.3;;;;;;;13.75;59.24609;1005.914;;;;
2019/07/10 00:17:29;;;;;;;1.8;1.4;;;;;;;13.82;59.21875;1005.907;;;;
2019/07/10 00:19:55;;;;;;;3.3;1.6;;;;;;;13.67;59.83301;1005.912;;;;
2019/07/10 00:22:25;;;;;;;3.3;1.5;;;;;;;13.43;60.66406;1005.939;;;;
2019/07/10 00:24:48;;;;;;;4.3;1.3;;;;;;;12.95;62.46289;1005.888;;;;
2019/07/10 00:27:12;;;;;;;3.2;1.5;;;;;;;12.93;62.81641;1005.917;;;;
2019/07/10 00:29:34;;;;;;;2.3;1.6;;;;;;;13.11;62.24414;1005.914;;;;
2019/07/10 00:32:02;;;;;;;2.2;1.3;;;;;;;13.29;61.57813;1005.914;;;;
2019/07/10 00:34:24;;;;;;;1.9;1.6;;;;;;;13.17;61.97559;1005.921;;;;
2019/07/10 00:36:50;;;;;;;2.5;1.6;;;;;;;12.91;62.82617;1005.956;;;;
2019/07/10 00:39:22;;;;;;;3.7;1.8;;;;;;;12.71;63.63574;1005.96;;;;
2019/07/10 00:41:45;;;;;;;3.9;1.5;;;;;;;12.7;63.80859;1005.944;;;;
2019/07/10 00:44:10;;;;;;;2.9;1.6;;;;;;;12.79;63.56738;1005.959;;;;
2019/07/10 00:46:35;;;;;;;2.9;1.6;;;;;;;12.67;63.95215;1005.91;;;;
2019/07/10 00:49:00;;;;;;;1.9;1.5;;;;;;;12.52;64.7002;1005.914;;;;
2019/07/10 00:51:25;;;;;;;3.4;1.5;;;;;;;12.54;64.70313;1005.924;;;;
2019/07/10 00:53:50;;;;;;;2.9;1.6;;;;;;;12.63;64.33691;1005.932;;;;
2019/07/10 00:56:15;;;;;;;4.3;1.6;;;;;;;12.58;64.37598;1005.922;;;;
2019/07/10 00:58:41;;;;;;;3.3;1.5;;;;;;;12.54;64.55371;1005.896;;;;
2019/07/10 01:01:06;;;;;;;3.1;1.7;;;;;;;12.34;65.29492;1005.925;;;;
2019/07/10 01:03:31;;;;;;;2.5;1.4;;;;;;;12.43;64.96289;1005.971;;;;
2019/07/10 01:05:56;;;;;;;3.8;1.6;;;;;;;12.52;64.59863;1005.971;;;;
2019/07/10 01:08:21;;;;;;;1.9;1.4;;;;;;;12.32;65.44141;1005.948;;;;
2019/07/10 01:10:46;;;;;;;3.9;1.6;;;;;;;12.45;65.12695;1005.986;;;;
2019/07/10 01:13:11;;;;;;;3.3;1.6;;;;;;;12.64;64.14258;1006.024;;;;
2019/07/10 01:15:36;;;;;;;2.1;1.5;;;;;;;12.73;63.98438;1006.042;;;;
2019/07/10 01:18:01;;;;;;;4.3;1.7;;;;;;;12.71;64.05078;1006.042;;;;
2019/07/10 01:20:26;;;;;;;3.1;1.6;;;;;;;12.66;64.16992;1006.033;;;;
2019/07/10 01:22:52;;;;;;;1.7;1.6;;;;;;;12.71;64.22266;1006.066;;;;
2019/07/10 01:25:17;;;;;;;2.6;1.7;;;;;;;12.56;64.44238;1005.982;;;;
2019/07/10 01:27:42;;;;;;;4.1;1.7;;;;;;;12.56;64.70605;1005.96;;;;
2019/07/10 01:30:07;;;;;;;3;1.7;;;;;;;12.47;65.17676;1005.949;;;;
2019/07/10 01:32:32;;;;;;;2.6;1.6;;;;;;;12.52;65.11426;1005.932;;;;
2019/07/10 01:34:57;;;;;;;2.4;1.7;;;;;;;12.5;65.06543;1006.018;;;;
2019/07/10 01:37:22;;;;;;;2.3;1.6;;;;;;;12.31;65.78516;1005.969;;;;
2019/07/10 01:39:47;;;;;;;2.3;1.4;;;;;;;12.23;66.02539;1005.956;;;;
2019/07/10 01:42:12;;;;;;;2.5;1.7;;;;;;;12.3;66.09277;1005.989;;;;
2019/07/10 01:44:38;;;;;;;3.2;1.7;;;;;;;12.07;66.83887;1006.014;;;;
2019/07/10 01:47:03;;;;;;;3.4;1.7;;;;;;;11.8;67.99121;1005.99;;;;
2019/07/10 01:49:28;;;;;;;2.4;1.7;;;;;;;11.68;68.375;1005.98;;;;
2019/07/10 01:51:53;;;;;;;2.8;1.7;;;;;;;11.68;68.59277;1005.971;;;;
2019/07/10 01:54:18;;;;;;;3.4;1.9;;;;;;;11.61;68.86914;1005.944;;;;
2019/07/10 01:56:43;;;;;;;2.3;1.6;;;;;;;11.61;68.91504;1005.948;;;;
2019/07/10 01:59:08;;;;;;;2.8;1.7;;;;;;;11.54;69.19141;1005.948;;;;
2019/07/10 02:01:34;;;;;;;3.1;2;;;;;;;11.49;69.5498;1005.929;;;;
2019/07/10 02:03:59;;;;;;;3.7;1.9;;;;;;;11.44;69.9082;1005.886;;;;
2019/07/10 02:06:24;;;;;;;3;1.5;;;;;;;11.4;70.17773;1005.821;;;;
2019/07/10 02:08:49;;;;;;;2.2;1.7;;;;;;;11.45;70.0127;1005.846;;;;
2019/07/10 02:11:14;;;;;;;2.5;1.8;;;;;;;11.42;70.13477;1005.836;;;;
2019/07/10 02:13:39;;;;;;;2.6;1.7;;;;;;;11.43;70.06738;1005.783;;;;
2019/07/10 02:16:04;;;;;;;2.1;1.6;;;;;;;11.69;69.08789;1005.852;;;;
2019/07/10 02:18:33;;;;;;;2.9;1.7;;;;;;;11.74;68.74121;1005.886;;;;
2019/07/10 02:20:57;;;;;;;3.5;1.8;;;;;;;11.85;68.06934;1005.87;;;;
2019/07/10 02:23:22;;;;;;;3.6;1.8;;;;;;;11.99;67.44727;1005.918;;;;
2019/07/10 02:25:48;;;;;;;2.1;1.7;;;;;;;11.95;67.4082;1005.937;;;;
2019/07/10 02:28:13;;;;;;;2.2;1.8;;;;;;;11.6;68.74121;1005.942;;;;
2019/07/10 02:30:38;;;;;;;2;1.5;;;;;;;11.48;69.41113;1005.975;;;;
2019/07/10 02:33:04;;;;;;;3.4;1.7;;;;;;;11.54;69.38672;1005.908;;;;
2019/07/10 02:35:30;;;;;;;3.9;1.7;;;;;;;11.44;69.94238;1005.988;;;;
2019/07/10 02:37:55;;;;;;;3.3;1.8;;;;;;;11.18;70.8418;1005.984;;;;
2019/07/10 02:40:23;;;;;;;3.6;1.7;;;;;;;11.23;70.82813;1006.021;;;;
2019/07/10 02:42:49;;;;;;;5;1.6;;;;;;;11.28;70.55859;1005.982;;;;
2019/07/10 02:45:15;;;;;;;3.9;1.6;;;;;;;11.25;70.73828;1006.006;;;;
2019/07/10 02:47:51;;;;;;;3.8;1.9;;;;;;;11.2;70.85547;1005.975;;;;
2019/07/10 02:50:14;;;;;;;3.2;1.9;;;;;;;11.22;70.89355;1006.016;;;;
2019/07/10 02:52:38;;;;;;;2.2;1.8;;;;;;;11.23;70.99707;1005.992;;;;
2019/07/10 02:55:03;;;;;;;3.6;1.8;;;;;;;11.12;71.33496;1006.015;;;;
2019/07/10 02:57:25;;;;;;;4;1.6;;;;;;;11.03;71.54102;1006.022;;;;
2019/07/10 02:59:50;;;;;;;3.8;1.7;;;;;;;11.06;71.5791;1006.032;;;;
2019/07/10 03:02:15;;;;;;;2.9;1.8;;;;;;;11.01;71.52441;1006.076;;;;
2019/07/10 03:04:40;;;;;;;4.3;2;;;;;;;11.12;71.34668;1006.08;;;;
2019/07/10 03:07:05;;;;;;;4.1;1.9;;;;;;;11.01;71.87988;1006.051;;;;
2019/07/10 03:09:30;;;;;;;2.7;1.8;;;;;;;10.88;72.51074;1006.101;;;;
2019/07/10 03:11:55;;;;;;;2.5;1.8;;;;;;;11.08;71.77734;1006.086;;;;
2019/07/10 03:14:25;;;;;;;3.4;1.7;;;;;;;11.29;70.94043;1006.103;;;;
2019/07/10 03:16:45;;;;;;;2.8;1.8;;;;;;;11.5;70.22852;1006.128;;;;
2019/07/10 03:19:10;;;;;;;3;1.9;;;;;;;11.57;69.8252;1006.103;;;;
2019/07/10 03:21:35;;;;;;;3.2;2;;;;;;;11.35;70.63965;1006.15;;;;
2019/07/10 03:24:00;;;;;;;2.6;1.7;;;;;;;11.36;70.48145;1006.155;;;;
2019/07/10 03:26:25;;;;;;;3.3;1.8;;;;;;;11.09;71.3877;1006.117;;;;
2019/07/10 03:28:50;;;;;;;4;1.9;;;;;;;10.81;72.54395;1006.097;;;;
2019/07/10 03:31:16;;;;;;;2.7;2.1;;;;;;;10.82;72.95801;1006.136;;;;
2019/07/10 03:33:41;;;;;;;4;1.6;;;;;;;11.17;71.7002;1006.169;;;;
2019/07/10 03:36:13;;;;;;;5;2.1;;;;;;;11.27;71.0293;1006.168;;;;
2019/07/10 03:38:34;;;;;;;3.7;1.9;;;;;;;11.34;70.74121;1006.19;;;;
2019/07/10 03:41:02;;;;;;;3.6;2;;;;;;;11.43;70.29688;1006.216;;;;
2019/07/10 03:43:24;;;;;;;4.4;2.1;;;;;;;11.41;70.21484;1006.205;;;;
2019/07/10 03:45:49;;;;;;;5.1;2.1;;;;;;;11.3;70.6875;1006.194;;;;
2019/07/10 03:48:14;;;;;;;3.7;1.8;;;;;;;11.13;71.48535;1006.247;;;;
2019/07/10 03:50:40;;;;;;;3.6;2;;;;;;;11.05;71.71387;1006.286;;;;
2019/07/10 03:53:06;;;;;;;10.1;2.9;;;;;;;10.99;71.86523;1006.338;;;;
2019/07/10 03:55:31;;;;;;;4.8;2.1;;;;;;;10.96;71.98535;1006.317;;;;
2019/07/10 03:57:56;;;;;;;3.8;2;;;;;;;11.13;71.48633;1006.406;;;;
2019/07/10 04:02:29;;;;;;;3.6;1.8;;;;;;;11.19;70.51074;1006.395;;;;
2019/07/10 04:04:55;;;;;;;3;1.8;;;;;;;11.43;70.27441;1006.406;;;;
2019/07/10 04:07:19;;;;;;;3.6;1.8;;;;;;;11.61;69.62793;1006.397;;;;
2019/07/10 04:09:44;;;;;;;3.5;1.6;;;;;;;11.5;69.91895;1006.485;;;;
2019/07/10 04:12:09;;;;;;;2.7;1.7;;;;;;;11.45;70.16211;1006.48;;;;
2019/07/10 04:14:34;;;;;;;13.1;10.9;;;;;;;11.64;69.71094;1006.519;;;;
2019/07/10 04:17:00;;;;;;;3.7;1.7;;;;;;;11.41;69.39746;1006.537;;;;
2019/07/10 04:19:25;;;;;;;2.5;1.6;;;;;;;11.25;70.06152;1006.541;;;;
2019/07/10 04:21:51;;;;;;;3.3;2;;;;;;;11.38;69.8291;1006.538;;;;
2019/07/10 04:24:16;;;;;;;2.7;1.7;;;;;;;11.36;69.55078;1006.561;;;;
2019/07/10 04:26:48;;;;;;;2.9;1.7;;;;;;;11.3;70.24219;1006.609;;;;
2019/07/10 04:29:14;;;;;;;2.9;1.9;;;;;;;11.31;70.30078;1006.547;;;;
2019/07/10 04:31:38;;;;;;;3.2;1.7;;;;;;;11.34;70.33984;1006.573;;;;
2019/07/10 04:34:04;;;;;;;4;2;;;;;;;11.35;70.31836;1006.584;;;;
2019/07/10 04:36:29;;;;;;;3.6;1.9;;;;;;;11.37;70.09277;1006.565;;;;
2019/07/10 04:38:56;;;;;;;2.6;1.8;;;;;;;11.51;69.67871;1006.584;;;;
2019/07/10 04:41:22;;;;;;;3.7;1.8;;;;;;;11.56;69.14844;1006.576;;;;
2019/07/10 04:43:46;;;;;;;4.2;2;;;;;;;11.65;69.44922;1006.565;;;;
2019/07/10 04:46:14;;;;;;;3.1;1.9;;;;;;;11.78;68.58594;1006.562;;;;
2019/07/10 04:48:39;;;;;;;2.6;1.7;;;;;;;12.02;67.58887;1006.496;;;;
2019/07/10 04:51:05;;;;;;;4.2;1.9;;;;;;;12.35;66.49121;1006.478;;;;
2019/07/10 04:53:29;;;;;;;2.2;1.7;;;;;;;12.9;64.65332;1006.45;;;;
2019/07/10 04:55:54;;;;;;;2.8;1.6;;;;;;;13.32;62.37695;1006.459;;;;
2019/07/10 04:58:21;;;;;;;2.4;1.5;;;;;;;13.9;60.14063;1006.493;;;;
2019/07/10 05:00:49;;;;;;;5.4;1.5;;;;;;;14.31;58.73145;1006.451;;;;
2019/07/10 05:03:15;;;;;;;4.9;1.4;;;;;;;14.52;57.47754;1006.448;;;;
2019/07/10 05:05:40;;;;;;;3.9;1.7;;;;;;;14.76;56.68848;1006.39;;;;
2019/07/10 05:08:06;;;;;;;2.4;1.6;;;;;;;15.04;56.75977;1006.42;;;;
2019/07/10 05:10:32;;;;;;;2.6;1.8;;;;;;;14.79;57.70898;1006.413;;;;
2019/07/10 05:12:57;;;;;;;3.9;1.6;;;;;;;14.97;57.55957;1006.411;;;;
2019/07/10 05:15:23;;;;;;;4.6;1.7;;;;;;;14.92;56.7793;1006.419;;;;
2019/07/10 05:17:48;;;;;;;2;1.7;;;;;;;14.75;58.30566;1006.419;;;;
2019/07/10 05:20:15;;;;;;;5;1.7;;;;;;;15.15;57.36328;1006.406;;;;
2019/07/10 05:22:42;;;;;;;2.4;1.5;;;;;;;15.06;56.40332;1006.459;;;;
2019/07/10 05:25:07;;;;;;;4;1.9;;;;;;;15.07;56.86719;1006.446;;;;
2019/07/10 05:27:32;;;;;;;3;1.8;;;;;;;15.12;56.82813;1006.483;;;;
2019/07/10 05:29:57;;;;;;;2.6;1.7;;;;;;;15.28;56.49023;1006.471;;;;
2019/07/10 05:32:21;;;;;;;2.5;1.8;;;;;;;15.26;56.33691;1006.434;;;;
2019/07/10 05:34:46;;;;;;;3.5;1.7;;;;;;;15.25;56.60156;1006.417;;;;
2019/07/10 05:37:13;;;;;;;3.9;1.8;;;;;;;15.39;55.92383;1006.436;;;;
2019/07/10 05:39:39;;;;;;;5.7;2.2;;;;;;;15.55;55.75977;1006.464;;;;
2019/07/10 05:42:07;;;;;;;4.7;2;;;;;;;15.72;54.7627;1006.513;;;;
2019/07/10 05:44:32;;;;;;;2.5;1.5;;;;;;;15.9;54.18164;1006.537;;;;
2019/07/10 05:46:56;;;;;;;3.5;1.9;;;;;;;15.91;54.27539;1006.507;;;;
2019/07/10 05:49:23;;;;;;;3.6;1.5;;;;;;;15.97;53.7041;1006.523;;;;
2019/07/10 05:51:49;;;;;;;4.1;1.7;;;;;;;15.87;54.14355;1006.566;;;;
2019/07/10 05:54:21;;;;;;;2.2;1.7;;;;;;;16.16;53.01953;1006.546;;;;
2019/07/10 05:56:44;;;;;;;2.8;1.3;;;;;;;16.19;52.63965;1006.521;;;;
2019/07/10 05:59:13;;;;;;;2.2;1.4;;;;;;;16.52;51.89063;1006.579;;;;
2019/07/10 06:01:37;;;;;;;3.7;1.4;;;;;;;17.04;50.81445;1006.545;;;;
2019/07/10 06:04:04;;;;;;;3.1;1.4;;;;;;;17.32;49.73145;1006.546;;;;
2019/07/10 06:06:32;;;;;;;2.6;1.3;;;;;;;17.77;48.01172;1006.542;;;;
2019/07/10 06:08:56;;;;;;;3.1;1.3;;;;;;;17.52;48.1709;1006.575;;;;
2019/07/10 06:11:18;;;;;;;2.9;1.3;;;;;;;17.41;48.86816;1006.58;;;;
2019/07/10 06:13:44;;;;;;;3.6;1.4;;;;;;;17.76;48.56934;1006.59;;;;
2019/07/10 06:16:09;;;;;;;2.2;1.5;;;;;;;18.46;46.86328;1006.534;;;;
2019/07/10 06:18:34;;;;;;;2.3;1.3;;;;;;;18.82;46.3291;1006.614;;;;
2019/07/10 06:21:03;;;;;;;2.3;1.3;;;;;;;18.32;47.4082;1006.611;;;;
2019/07/10 06:23:28;;;;;;;2.9;1.4;;;;;;;18.77;45.37988;1006.572;;;;
2019/07/10 06:25:54;;;;;;;3.4;1.6;;;;;;;19;45.16895;1006.622;;;;
2019/07/10 06:28:20;;;;;;;2.8;1.2;;;;;;;18.79;45.45117;1006.569;;;;
2019/07/10 06:30:43;;;;;;;2.1;1;;;;;;;18.85;45.31836;1006.565;;;;
2019/07/10 06:33:11;;;;;;;2.2;1;;;;;;;19.22;43.67383;1006.575;;;;
2019/07/10 06:35:36;;;;;;;2;1.1;;;;;;;18.99;43.37207;1006.614;;;;
2019/07/10 06:38:01;;;;;;;3.6;1.2;;;;;;;18.78;44.44727;1006.582;;;;
2019/07/10 06:40:25;;;;;;;2.7;1;;;;;;;18.71;44.33594;1006.551;;;;
2019/07/10 06:42:53;;;;;;;1.8;1.2;;;;;;;18.84;44.06836;1006.591;;;;
2019/07/10 06:45:18;;;;;;;2.8;1.2;;;;;;;19.09;44.0127;1006.531;;;;
2019/07/10 06:47:44;;;;;;;2.8;1.4;;;;;;;19.38;43.81836;1006.558;;;;
2019/07/10 06:50:09;;;;;;;4.7;1.4;;;;;;;19.82;43.44141;1006.562;;;;
2019/07/10 06:52:35;;;;;;;2.3;1.2;;;;;;;20.41;41.79004;1006.637;;;;
2019/07/10 06:55:04;;;;;;;2.7;1.2;;;;;;;20.81;40.75;1006.6;;;;
2019/07/10 06:57:28;;;;;;;3.1;1.1;;;;;;;21.22;39.61426;1006.554;;;;
2019/07/10 06:59:55;;;;;;;1.9;1;;;;;;;21.97;38.24805;1006.533;;;;
2019/07/10 07:02:22;;;;;;;1.7;1;;;;;;;22.22;38.24512;1006.569;;;;
2019/07/10 07:04:46;;;;;;;3.6;1.5;;;;;;;23.32;35.08789;1006.586;;;;
2019/07/10 07:07:16;;;;;;;2.9;1.3;;;;;;;24.54;32.9502;1006.556;;;;
2019/07/10 07:09:42;;;;;;;4.8;1.4;;;;;;;24.38;32.78516;1006.571;;;;
2019/07/10 07:12:08;;;;;;;1.6;1;;;;;;;25.17;32.06152;1006.553;;;;
2019/07/10 07:14:31;;;;;;;1.8;1;;;;;;;25.8;30.05664;1006.566;;;;
2019/07/10 07:16:58;;;;;;;3.9;1.1;;;;;;;25.85;29.8457;1006.595;;;;
2019/07/10 07:19:22;;;;;;;2.7;1;;;;;;;25.79;30.12695;1006.565;;;;
2019/07/10 07:21:46;;;;;;;1.9;1;;;;;;;26.73;28.83691;1006.59;;;;
2019/07/10 07:24:14;;;;;;;8.9;1.2;;;;;;;26.53;28.96582;1006.537;;;;
2019/07/10 07:26:39;;;;;;;2.2;1.3;;;;;;;27.26;27.85938;1006.547;;;;
2019/07/10 07:29:04;;;;;;;2.5;0.9;;;;;;;27.21;28.31934;1006.531;;;;
2019/07/10 07:31:33;;;;;;;2.1;1.1;;;;;;;27.48;27.52832;1006.502;;;;
2019/07/10 07:33:53;;;;;;;4;0.9;;;;;;;28.54;25.92383;1006.543;;;;
2019/07/10 07:36:21;;;;;;;3.2;1.3;;;;;;;27.68;26.88574;1006.479;;;;
2019/07/10 07:38:47;;;;;;;3.4;1.1;;;;;;;27.79;26.95117;1006.476;;;;
2019/07/10 07:41:15;;;;;;;2;0.8;;;;;;;27.99;27.09375;1006.492;;;;
2019/07/10 07:43:37;;;;;;;1.9;1;;;;;;;29.61;24.49023;1006.489;;;;
2019/07/10 07:46:06;;;;;;;2.1;1.1;;;;;;;27.63;27.0127;1006.46;;;;
2019/07/10 07:48:32;;;;;;;2.4;1;;;;;;;28.41;26.08301;1006.512;;;;
2019/07/10 07:51:00;;;;;;;1.8;1.2;;;;;;;27.84;26.07422;1006.473;;;;
2019/07/10 07:53:24;;;;;;;1.9;1.1;;;;;;;28.73;25.08691;1006.513;;;;
2019/07/10 07:55:49;;;;;;;3.7;1;;;;;;;30.52;23.00684;1006.467;;;;
2019/07/10 07:58:14;;;;;;;2.4;0.9;;;;;;;30.18;23.44531;1006.392;;;;
2019/07/10 08:00:40;;;;;;;3.1;1.2;;;;;;;28.42;25.9043;1006.4;;;;
2019/07/10 08:03:08;;;;;;;5.4;1.2;;;;;;;29.18;25.21973;1006.413;;;;
2019/07/10 08:05:31;;;;;;;2.9;1.3;;;;;;;31.15;22.72754;1006.416;;;;
2019/07/10 08:07:56;;;;;;;2.7;1;;;;;;;30.78;22.90039;1006.4;;;;
2019/07/10 08:10:22;;;;;;;3.6;1.8;;;;;;;30.96;21.98633;1006.417;;;;
2019/07/10 08:12:47;;;;;;;3.6;1.2;;;;;;;30.38;23.12012;1006.386;;;;
2019/07/10 08:15:12;;;;;;;1.6;0.9;;;;;;;30.14;23.76563;1006.451;;;;
2019/07/10 08:17:41;;;;;;;2.4;1;;;;;;;30.97;22.51465;1006.422;;;;
2019/07/10 08:20:07;;;;;;;5.9;1.5;;;;;;;27.82;25.71484;1006.53;;;;
2019/07/10 08:22:31;;;;;;;2.8;1.2;;;;;;;27.69;26.31543;1006.442;;;;
2019/07/10 08:25:01;;;;;;;2;1.2;;;;;;;28.45;25.30957;1006.445;;;;
2019/07/10 08:27:27;;;;;;;3.9;1.3;;;;;;;30.25;23.20898;1006.393;;;;
2019/07/10 08:29:49;;;;;;;3.3;1.2;;;;;;;32.08;21.13965;1006.378;;;;
2019/07/10 08:32:14;;;;;;;2.3;1.1;;;;;;;33.9;19.2334;1006.414;;;;
2019/07/10 08:34:39;;;;;;;2.7;1.1;;;;;;;29.62;23.42773;1006.413;;;;
2019/07/10 08:37:05;;;;;;;3.2;1.4;;;;;;;28.09;25.6123;1006.322;;;;
2019/07/10 08:39:33;;;;;;;2.1;1.1;;;;;;;30.58;22.69824;1006.299;;;;
2019/07/10 08:41:56;;;;;;;3.6;1.3;;;;;;;30.3;22.26563;1006.325;;;;
2019/07/10 08:44:22;;;;;;;2.5;1.1;;;;;;;28.87;23.99707;1006.347;;;;
2019/07/10 08:46:47;;;;;;;2.5;1.3;;;;;;;28.04;25.38281;1006.243;;;;
2019/07/10 08:49:13;;;;;;;4.2;1.5;;;;;;;27.92;25.19727;1006.271;;;;
2019/07/10 08:51:39;;;;;;;2;1.2;;;;;;;28.75;24.26465;1006.307;;;;
2019/07/10 08:54:03;;;;;;;2.6;1.2;;;;;;;31.59;21.03223;1006.224;;;;
2019/07/10 08:56:30;;;;;;;1.8;1.3;;;;;;;32.09;19.99805;1006.236;;;;
2019/07/10 08:58:57;;;;;;;3.1;1.5;;;;;;;32.72;19.32813;1006.304;;;;
2019/07/10 09:01:21;;;;;;;4.8;1.6;;;;;;;29.21;22.58203;1006.273;;;;
2019/07/10 09:03:46;;;;;;;5;1.8;;;;;;;29.8;21.79883;1006.198;;;;
2019/07/10 09:06:11;;;;;;;3.9;1.5;;;;;;;29.78;21.78516;1006.167;;;;
2019/07/10 09:08:36;;;;;;;5.1;1.6;;;;;;;29.76;21.92773;1006.136;;;;
2019/07/10 09:11:01;;;;;;;2.5;1.5;;;;;;;29.81;21.81152;1006.187;;;;
2019/07/10 09:13:27;;;;;;;4;1.8;;;;;;;27.71;24.18555;1006.113;;;;
2019/07/10 09:15:55;;;;;;;3.8;1.7;;;;;;;27.9;24.6123;1006.117;;;;
2019/07/10 09:18:16;;;;;;;3.3;1.8;;;;;;;27.87;24.18262;1006.089;;;;
2019/07/10 09:20:42;;;;;;;4;1.9;;;;;;;29.05;22.62207;1006.135;;;;
2019/07/10 09:23:07;;;;;;;4.7;2.1;;;;;;;29.87;21.92188;1006.16;;;;
2019/07/10 09:25:33;;;;;;;4.3;1.7;;;;;;;29.16;22.83105;1006.148;;;;
2019/07/10 09:27:57;;;;;;;4.4;1.8;;;;;;;31.04;20.9834;1006.139;;;;
2019/07/10 09:30:25;;;;;;;6.3;4.1;;;;;;;32.01;18.84082;1006.164;;;;
2019/07/10 09:32:48;;;;;;;3.1;1.8;;;;;;;29.74;21.13867;1006.189;;;;
2019/07/10 09:35:14;;;;;;;4.1;1.9;;;;;;;28.86;22.68359;1006.17;;;;
2019/07/10 09:37:39;;;;;;;4.2;2.3;;;;;;;29.22;21.71094;1006.219;;;;
2019/07/10 09:40:04;;;;;;;4.6;1.9;;;;;;;28.71;22.40137;1006.18;;;;
2019/07/10 09:42:29;;;;;;;3.5;1.9;;;;;;;29.17;22.05469;1006.152;;;;
2019/07/10 09:44:54;;;;;;;5.9;2.3;;;;;;;30.88;20.13672;1006.085;;;;
2019/07/10 09:47:20;;;;;;;3.6;1.7;;;;;;;31.41;19.9209;1006.03;;;;
2019/07/10 09:49:44;;;;;;;3.3;1.8;;;;;;;30.21;20.96875;1006.045;;;;
2019/07/10 09:52:09;;;;;;;4.8;1.8;;;;;;;29.94;21.2793;1006.01;;;;
2019/07/10 09:54:35;;;;;;;2.7;1.7;;;;;;;30.37;20.66504;1006.125;;;;
2019/07/10 09:57:00;;;;;;;4.8;1.9;;;;;;;27.97;23.23535;1006.084;;;;
2019/07/10 09:59:26;;;;;;;3.3;1.7;;;;;;;28.91;22.56738;1006.088;;;;
2019/07/10 10:01:50;;;;;;;5.7;2;;;;;;;29.59;21.22656;1006.082;;;;
2019/07/10 10:04:15;;;;;;;4.9;2;;;;;;;29.07;22.09766;1006.07;;;;
2019/07/10 10:09:05;;;;;;;5.1;1.7;;;;;;;29.48;20.13477;1006.06;;;;
2019/07/10 10:11:31;;;;;;;3.9;1.6;;;;;;;28.32;22.25195;1006.06;;;;
2019/07/10 10:13:58;;;;;;;3.9;1.6;;;;;;;29.21;20.65918;1006.032;;;;
2019/07/10 10:16:23;;;;;;;5.9;1.7;;;;;;;28.16;23.43457;1005.996;;;;
2019/07/10 10:18:49;;;;;;;3.2;1.8;;;;;;;28.31;23.22852;1005.959;;;;
2019/07/10 10:21:15;;;;;;;3.7;1.7;;;;;;;29.01;22.03516;1005.92;;;;
2019/07/10 10:23:38;;;;;;;3.3;1.6;;;;;;;29.32;22.46875;1005.897;;;;
2019/07/10 10:26:03;;;;;;;7.1;1.7;;;;;;;30.64;20.92871;1005.848;;;;
2019/07/10 10:28:30;;;;;;;2.1;1.4;;;;;;;30.28;21.25977;1005.863;;;;
2019/07/10 10:30:58;;;;;;;4.3;1.6;;;;;;;28.55;21.90527;1005.818;;;;
2019/07/10 10:33:19;;;;;;;2;1.3;;;;;;;28.04;22.85742;1005.805;;;;
2019/07/10 10:35:44;;;;;;;3.4;1.8;;;;;;;27.46;23.48242;1005.739;;;;
2019/07/10 10:38:12;;;;;;;5.5;2.4;;;;;;;28.12;23.20703;1005.745;;;;
2019/07/10 10:40:38;;;;;;;3;1.7;;;;;;;27.01;24.29004;1005.723;;;;
2019/07/10 10:43:11;;;;;;;2.9;1.6;;;;;;;27.32;24.35449;1005.682;;;;
2019/07/10 10:45:34;;;;;;;3.5;1.7;;;;;;;26.43;25.33887;1005.677;;;;
2019/07/10 10:47:57;;;;;;;4.3;1.7;;;;;;;26.89;24.36719;1005.628;;;;
2019/07/10 10:50:29;;;;;;;5.3;1.8;;;;;;;26.95;24.69141;1005.595;;;;
2019/07/10 10:52:47;;;;;;;4;1.8;;;;;;;25.9;26.00879;1005.595;;;;
2019/07/10 10:55:13;;;;;;;4.3;1.4;;;;;;;25.68;26.94434;1005.543;;;;
2019/07/10 10:57:40;;;;;;;4.3;1.8;;;;;;;25.26;27.33203;1005.475;;;;
2019/07/10 11:00:02;;;;;;;11.4;6.1;;;;;;;25.18;28.22754;1005.458;;;;
2019/07/10 11:02:27;;;;;;;3.9;1.7;;;;;;;25.7;26.93359;1005.49;;;;
2019/07/10 11:04:52;;;;;;;2.7;1.6;;;;;;;25.5;27.4541;1005.527;;;;
2019/07/10 11:07:18;;;;;;;4.4;2;;;;;;;24.21;29.0752;1005.495;;;;
2019/07/10 11:09:42;;;;;;;3.2;1.8;;;;;;;23.95;29.25879;1005.54;;;;
2019/07/10 11:12:07;;;;;;;3.8;2;;;;;;;24.08;29.38574;1005.499;;;;
2019/07/10 11:14:32;;;;;;;4.3;1.9;;;;;;;24.28;29.2334;1005.388;;;;
2019/07/10 11:16:58;;;;;;;3;1.6;;;;;;;24.89;28.2793;1005.362;;;;
2019/07/10 11:19:23;;;;;;;3.9;2;;;;;;;24.39;28.91016;1005.373;;;;
2019/07/10 11:21:56;;;;;;;2.6;1.8;;;;;;;24.16;29.2373;1005.359;;;;
2019/07/10 11:24:13;;;;;;;2.7;1.9;;;;;;;24.83;28.47754;1005.356;;;;
2019/07/10 11:26:38;;;;;;;4.2;1.9;;;;;;;24.89;27.51172;1005.307;;;;
2019/07/10 11:29:05;;;;;;;3.3;1.6;;;;;;;25.22;27.46094;1005.248;;;;
2019/07/10 11:31:29;;;;;;;2.4;1.5;;;;;;;25.48;26.375;1005.253;;;;
2019/07/10 11:33:54;;;;;;;5.2;2.6;;;;;;;25.56;26.52148;1005.162;;;;
2019/07/10 11:36:19;;;;;;;3.3;1.5;;;;;;;25.29;27.44043;1005.184;;;;
2019/07/10 11:38:45;;;;;;;2.3;1.7;;;;;;;25.42;26.87988;1005.215;;;;
2019/07/10 11:41:10;;;;;;;4.2;1.6;;;;;;;24.78;26.72461;1005.229;;;;
2019/07/10 11:43:34;;;;;;;3.7;1.5;;;;;;;24.58;26.30957;1005.292;;;;
2019/07/10 11:46:03;;;;;;;2.4;1.5;;;;;;;24.32;27.23926;1005.265;;;;
2019/07/10 11:48:25;;;;;;;2.1;1.5;;;;;;;24.53;27.33594;1005.292;;;;
2019/07/10 11:50:49;;;;;;;3.1;1.7;;;;;;;24.73;27.19336;1005.246;;;;
2019/07/10 11:53:18;;;;;;;2.6;1.6;;;;;;;24.83;27.14063;1005.152;;;;
2019/07/10 11:55:41;;;;;;;5.1;1.7;;;;;;;25.17;26.7002;1005.15;;;;
2019/07/10 11:58:08;;;;;;;2.7;1.7;;;;;;;25.21;26.66699;1005.131;;;;
2019/07/10 12:00:31;;;;;;;3.3;1.6;;;;;;;24.77;27.94141;1005.106;;;;
2019/07/10 12:02:56;;;;;;;3.1;1.4;;;;;;;25.18;27.29199;1005.098;;;;
2019/07/10 12:05:21;;;;;;;3.4;1.6;;;;;;;25.42;26.8457;1005.068;;;;
2019/07/10 12:07:46;;;;;;;2.5;1.6;;;;;;;25.35;26.43848;1005.032;;;;
2019/07/10 12:10:11;;;;;;;3.4;1.4;;;;;;;24.88;26.18652;1005.029;;;;
2019/07/10 12:12:36;;;;;;;3.8;1.5;;;;;;;24.72;26.45996;1004.992;;;;
2019/07/10 12:15:01;;;;;;;2.7;1.4;;;;;;;25.16;26.17871;1004.982;;;;
2019/07/10 12:17:26;;;;;;;2.4;1.3;;;;;;;25.2;25.69629;1004.996;;;;
2019/07/10 12:19:52;;;;;;;3;1.6;;;;;;;24.71;26.47168;1004.972;;;;
2019/07/10 12:22:17;;;;;;;1.9;1.5;;;;;;;25;25.90918;1004.847;;;;
2019/07/10 12:24:42;;;;;;;1.7;1.2;;;;;;;25.4;25.67188;1004.812;;;;
2019/07/10 12:27:06;;;;;;;2.9;1.3;;;;;;;25.91;25.02539;1004.89;;;;
2019/07/10 12:29:33;;;;;;;3.5;1.5;;;;;;;25.34;26.50879;1004.871;;;;
2019/07/10 12:31:57;;;;;;;3.1;1.4;;;;;;;24.97;27.04297;1004.951;;;;
2019/07/10 12:34:23;;;;;;;3.5;1.7;;;;;;;24.75;27.13672;1004.856;;;;
2019/07/10 12:37:01;;;;;;;2.3;1.6;;;;;;;24.52;27.58301;1004.902;;;;
2019/07/10 12:39:12;;;;;;;3.7;1.5;;;;;;;24.46;27.23633;1004.833;;;;
2019/07/10 12:41:46;;;;;;;2.1;1.5;;;;;;;24.35;27.25391;1004.817;;;;
2019/07/10 12:44:10;;;;;;;1.6;1.3;;;;;;;23.85;27.86035;1004.793;;;;
2019/07/10 12:46:34;;;;;;;4.3;1.5;;;;;;;24.18;27.72754;1004.746;;;;
2019/07/10 12:49:00;;;;;;;2.8;1.6;;;;;;;24.71;27.12109;1004.684;;;;
2019/07/10 12:51:28;;;;;;;1.7;1.1;;;;;;;24.71;27.0625;1004.714;;;;
2019/07/10 12:53:52;;;;;;;2.3;1.4;;;;;;;24.58;26.40527;1004.648;;;;
2019/07/10 12:56:17;;;;;;;4.8;1.9;;;;;;;24.39;26.13379;1004.724;;;;
2019/07/10 12:58:46;;;;;;;4.9;1.5;;;;;;;24;26.9248;1004.679;;;;
2019/07/10 13:01:12;;;;;;;2.9;1.4;;;;;;;24.36;27.78613;1004.703;;;;
2019/07/10 13:03:36;;;;;;;1.6;1.3;;;;;;;24.41;27.26953;1004.711;;;;
2019/07/10 13:06:01;;;;;;;4.6;2.2;;;;;;;24.56;27.17188;1004.632;;;;
2019/07/10 13:08:27;;;;;;;2.9;1.5;;;;;;;24.94;26.73438;1004.618;;;;
2019/07/10 13:10:52;;;;;;;3.6;1.4;;;;;;;24.8;26.74902;1004.546;;;;
2019/07/10 13:13:17;;;;;;;2.6;1.3;;;;;;;25.06;26.44434;1004.509;;;;
2019/07/10 13:15:43;;;;;;;3;1.5;;;;;;;25.54;25.9043;1004.496;;;;
2019/07/10 13:18:09;;;;;;;2.9;1.6;;;;;;;25.22;26.18262;1004.476;;;;
2019/07/10 13:20:32;;;;;;;3.9;1.4;;;;;;;25.6;25.75488;1004.478;;;;
2019/07/10 13:22:59;;;;;;;2.3;1.4;;;;;;;25.43;26.12305;1004.45;;;;
2019/07/10 13:25:23;;;;;;;2.5;1.4;;;;;;;25.59;25.59961;1004.448;;;;
2019/07/10 13:27:49;;;;;;;1.9;1.2;;;;;;;25.53;25.56055;1004.472;;;;
2019/07/10 13:30:12;;;;;;;2.3;1.3;;;;;;;24.94;26.24805;1004.412;;;;
2019/07/10 13:32:38;;;;;;;3.5;1.4;;;;;;;25.04;26.23145;1004.363;;;;
2019/07/10 13:35:04;;;;;;;3.8;1.5;;;;;;;25.32;25.9043;1004.398;;;;
2019/07/10 13:37:28;;;;;;;4.3;1.4;;;;;;;25.4;25.95605;1004.349;;;;
2019/07/10 13:39:53;;;;;;;3.1;1.6;;;;;;;25.27;25.86523;1004.392;;;;
2019/07/10 13:42:18;;;;;;;3;1.5;;;;;;;25.21;26.47754;1004.304;;;;
2019/07/10 13:44:46;;;;;;;3.2;1.3;;;;;;;25.1;26.99121;1004.267;;;;
2019/07/10 13:47:10;;;;;;;4.9;1.6;;;;;;;25.23;28.18359;1004.261;;;;
2019/07/10 13:49:34;;;;;;;2.3;1.4;;;;;;;25.41;27.95801;1004.255;;;;
2019/07/10 13:51:59;;;;;;;2.8;1.3;;;;;;;25.61;27.66211;1004.229;;;;
2019/07/10 13:54:24;;;;;;;2.5;1.4;;;;;;;25.78;27.30566;1004.189;;;;
2019/07/10 13:56:50;;;;;;;3.6;1.6;;;;;;;25.37;27.4707;1004.197;;;;
2019/07/10 13:59:16;;;;;;;1.9;1.3;;;;;;;25.17;27.58789;1004.171;;;;
2019/07/10 14:01:40;;;;;;;3.1;1.4;;;;;;;25.15;27.65723;1004.168;;;;
2019/07/10 14:04:05;;;;;;;2;1.3;;;;;;;25.22;27.81543;1004.127;;;;
2019/07/10 14:06:35;;;;;;;2;1.3;;;;;;;24.91;27.97461;1004.117;;;;
2019/07/10 14:08:59;;;;;;;3.9;1.4;;;;;;;25.13;27.96387;1004.082;;;;
2019/07/10 14:11:25;;;;;;;3.6;1.3;;;;;;;25.6;27.53125;1004.063;;;;
2019/07/10 14:13:49;;;;;;;1.9;1.5;;;;;;;25.18;27.30371;1004.073;;;;
2019/07/10 14:16:17;;;;;;;4.5;1.5;;;;;;;25.06;27.62793;1004.054;;;;
2019/07/10 14:18:39;;;;;;;3.7;1.4;;;;;;;25.08;27.80664;1004.082;;;;